Flight Track Log - Related Links

Times and Time Zones

All times are in EDT time to prevent confusion due to time zone crossing. See the SWA1535 flight status page for this flight to view local times or setup timezone preferences in your user account.


Time Position Orientation Groundspeed Altitude Reporting Facility
EDT Latitude Longitude Course Direction KTS MPH feet Rate Location/Type
Thu 01:11:06 PM 41.7625 -71.4522 North 214 246 2,300  Level Boston Center
Thu 01:12:00 PM 41.8208 -71.4483 North 229 264 6,000 3,429 Climbing Boston Center
Thu 01:12:16 PM 41.8333 -71.4425 19° North 241 277 6,300 789 Climbing Boston Center
Thu 01:13:16 PM 41.8117 -71.3594 109° East 213 245 7,000 500 Climbing Boston Center
Thu 01:14:16 PM 41.7367 -71.3550 177° South 188 216 7,300 1,500 Climbing Boston Center
Thu 01:15:16 PM 41.6636 -71.3397 171° South 229 264 10,000 2,400 Climbing Boston Center
Thu 01:16:16 PM 41.5758 -71.3272 174° South 273 314 12,100 2,900 Climbing Boston Center
Thu 01:17:16 PM 41.4839 -71.3122 173° South 318 366 15,800 3,500 Climbing Boston Center
Thu 01:18:16 PM 41.3922 -71.2944 172° South 337 388 19,100 2,950 Climbing Boston Center
Thu 01:19:16 PM 41.2961 -71.2742 171° South 343 395 21,700 2,300 Climbing Boston Center
Thu 01:20:16 PM 41.1939 -71.2678 177° South 357 411 23,700 2,050 Climbing Boston Center
Thu 01:21:16 PM 41.1322 -71.3625 229° Southwest 321 369 25,800 2,100 Climbing Boston Center
Thu 01:22:16 PM 41.0917 -71.4844 246° West 322 371 27,900 2,450 Climbing Boston Center
Thu 01:23:16 PM 41.0386 -71.6092 241° Southwest 339 390 30,700 2,200 Climbing Boston Center
Thu 01:24:16 PM 41.0058 -71.7031 245° Southwest 352 405 32,300 1,650 Climbing Boston Center
Thu 01:25:16 PM 40.9692 -71.8381 250° West 352 405 34,000 850 Climbing Boston Center
Thu 01:26:16 PM 40.9217 -71.9456 240° Southwest 357 411 34,000  Level Boston Center
Thu 01:27:16 PM 40.8783 -72.0639 244° Southwest 357 411 34,000  Level Boston Center
Thu 01:28:16 PM 40.8372 -72.1767 244° Southwest 352 405 34,000  Level Boston Center
Thu 01:29:16 PM 40.7956 -72.2919 245° Southwest 352 405 34,000  Level Boston Center
Thu 01:30:16 PM 40.7333 -72.3853 229° Southwest 347 399 34,000  Level Boston Center
Thu 01:31:16 PM 40.6686 -72.4728 226° Southwest 342 394 34,000  Level Boston Center
Thu 01:32:16 PM 40.5956 -72.5575 221° Southwest 342 394 34,000  Level Boston Center
Thu 01:33:16 PM 40.5267 -72.6447 224° Southwest 348 400 34,000  Level Boston Center
Thu 01:34:16 PM 40.4578 -72.7292 223° Southwest 342 394 34,000  Level Boston Center
Thu 01:35:16 PM 40.3867 -72.8133 222° Southwest 347 399 34,000  Level Boston Center
Thu 01:36:51 PM 40.2781 -72.9486 224° Southwest 338 389 34,000  Level Washington Center
Thu 01:37:51 PM 40.2050 -73.0356 222° Southwest 345 397 34,000  Level Washington Center
Thu 01:38:51 PM 40.1339 -73.1222 223° Southwest 350 403 34,000  Level Washington Center
Thu 01:39:51 PM 40.0628 -73.2089 223° Southwest 350 403 34,000  Level Washington Center
Thu 01:40:51 PM 39.9894 -73.2953 222° Southwest 355 409 34,000  Level Washington Center
Thu 01:41:51 PM 39.9161 -73.3842 223° Southwest 361 415 34,000  Level Washington Center
Thu 01:42:51 PM 39.8364 -73.4758 221° Southwest 361 415 34,000  Level Washington Center
Thu 01:43:51 PM 39.7589 -73.5617 220° Southwest 361 415 34,000  Level Washington Center
Thu 01:44:51 PM 39.6872 -73.6500 223° Southwest 361 415 34,000  Level Washington Center
Thu 01:45:51 PM 39.6117 -73.7411 223° Southwest 361 415 34,000  Level Washington Center
Thu 01:46:51 PM 39.5400 -73.8264 223° Southwest 361 415 34,000  Level Washington Center
Thu 01:47:51 PM 39.4661 -73.9114 222° Southwest 361 415 34,000 750 Level Washington Center
Thu 01:48:51 PM 39.3964 -73.9936 222° Southwest 361 415 35,500 1,000 Climbing Washington Center
Thu 01:49:51 PM 39.3225 -74.0783 222° Southwest 361 415 36,000 250 Climbing Washington Center
Thu 01:50:51 PM 39.2486 -74.1658 223° Southwest 361 415 36,000  Level Washington Center
Thu 01:51:51 PM 39.1725 -74.2531 222° Southwest 361 415 36,000  Level Washington Center
Thu 01:52:51 PM 39.0983 -74.3372 221° Southwest 361 415 36,000  Level Washington Center
Thu 01:53:51 PM 39.0222 -74.4242 222° Southwest 356 410 36,000  Level Washington Center
Thu 01:54:51 PM 38.9481 -74.5106 222° Southwest 356 410 36,000  Level Washington Center
Thu 01:55:51 PM 38.8756 -74.5944 222° Southwest 361 415 36,000  Level Washington Center
Thu 01:56:51 PM 38.7992 -74.6781 220° Southwest 361 415 36,000  Level Washington Center
Thu 01:57:51 PM 38.7247 -74.7642 222° Southwest 361 415 36,000  Level Washington Center
Thu 01:58:51 PM 38.6503 -74.8419 219° Southwest 361 415 36,000  Level Washington Center
Thu 01:59:51 PM 38.5736 -74.9225 219° Southwest 355 409 36,000  Level Washington Center
Thu 02:00:51 PM 38.4969 -75.0000 218° Southwest 355 409 36,000  Level Washington Center
Thu 02:01:51 PM 38.4222 -75.0803 220° Southwest 355 409 36,000  Level Washington Center
Thu 02:02:51 PM 38.3475 -75.1628 221° Southwest 355 409 36,000  Level Washington Center
Thu 02:03:51 PM 38.2747 -75.2453 222° Southwest 355 409 36,000  Level Washington Center
Thu 02:04:51 PM 38.1978 -75.3197 217° Southwest 355 409 36,000  Level Washington Center
Thu 02:05:51 PM 38.1231 -75.4044 222° Southwest 360 414 36,000  Level Washington Center
Thu 02:06:51 PM 38.0606 -75.4653 217° Southwest 360 414 36,000  Level Washington Center
Thu 02:07:51 PM 37.9583 -75.5469 212° Southwest 365 420 36,000  Level Washington Center
Thu 02:08:51 PM 37.8708 -75.6103 210° Southwest 365 420 36,000  Level Washington Center
Thu 02:09:51 PM 37.7831 -75.6758 211° Southwest 370 426 36,000  Level Washington Center
Thu 02:10:51 PM 37.6933 -75.7414 210° Southwest 370 426 36,000  Level Washington Center
Thu 02:11:51 PM 37.6078 -75.8067 211° Southwest 370 426 36,000  Level Washington Center
Thu 02:12:51 PM 37.5181 -75.8719 210° Southwest 370 426 36,000  Level Washington Center
Thu 02:13:51 PM 37.4219 -75.9239 203° Southwest 375 432 36,000  Level Washington Center
Thu 02:14:51 PM 37.3217 -75.9758 202° Southwest 382 440 36,000  Level Washington Center
Thu 02:15:51 PM 37.2233 -76.0275 203° Southwest 382 440 36,000  Level Washington Center
Thu 02:16:51 PM 37.1272 -76.0789 203° Southwest 382 440 36,000  Level Washington Center
Thu 02:17:51 PM 37.0311 -76.1331 204° Southwest 382 440 36,000  Level Washington Center
Thu 02:18:51 PM 36.9369 -76.1767 200° South 387 445 36,000  Level Washington Center
Thu 02:19:51 PM 36.8469 -76.2381 209° Southwest 387 445 36,000  Level Washington Center
Thu 02:20:51 PM 36.7653 -76.3153 217° Southwest 377 434 36,000  Level Washington Center
Thu 02:21:51 PM 36.6811 -76.3947 217° Southwest 377 434 36,000  Level Washington Center
Thu 02:22:51 PM 36.6014 -76.4717 218° Southwest 377 434 36,000  Level Washington Center
Thu 02:23:51 PM 36.5214 -76.5533 219° Southwest 377 434 36,000  Level Washington Center
Thu 02:24:51 PM 36.4394 -76.6350 219° Southwest 377 434 36,000  Level Washington Center
Thu 02:25:51 PM 36.3594 -76.7139 218° Southwest 377 434 36,000  Level Washington Center
Thu 02:26:51 PM 36.2814 -76.7953 220° Southwest 377 434 36,000  Level Washington Center
Thu 02:27:51 PM 36.1992 -76.8764 219° Southwest 377 434 36,000  Level Washington Center
Thu 02:28:51 PM 36.1211 -76.9575 220° Southwest 377 434 36,000  Level Washington Center
Thu 02:29:51 PM 36.0389 -77.0383 218° Southwest 377 434 36,000  Level Washington Center
Thu 02:30:51 PM 35.9586 -77.1189 219° Southwest 377 434 36,000  Level Washington Center
Thu 02:31:51 PM 35.8822 -77.2019 221° Southwest 372 428 36,000  Level Washington Center
Thu 02:32:51 PM 35.7978 -77.2797 217° Southwest 372 428 36,000  Level Washington Center
Thu 02:33:51 PM 35.7175 -77.3597 219° Southwest 382 440 36,000  Level Washington Center
Thu 02:34:51 PM 35.6369 -77.4425 220° Southwest 382 440 36,000  Level Washington Center
Thu 02:35:51 PM 35.5564 -77.5197 218° Southwest 377 434 36,000  Level Washington Center
Thu 02:36:51 PM 35.4758 -77.5994 219° Southwest 377 434 36,000  Level Washington Center
Thu 02:37:51 PM 35.3972 -77.6764 219° Southwest 377 434 36,000  Level Washington Center
Thu 02:38:51 PM 35.3167 -77.7531 218° Southwest 377 434 36,000  Level Washington Center
Thu 02:39:51 PM 35.2381 -77.8300 219° Southwest 372 428 36,000  Level Washington Center
Thu 02:40:51 PM 35.1572 -77.9089 219° Southwest 372 428 36,000  Level Washington Center
Thu 02:41:51 PM 35.0764 -77.9878 219° Southwest 372 428 36,000  Level Washington Center
Thu 02:42:51 PM 34.9956 -78.0667 219° Southwest 372 428 36,000  Level Washington Center
Thu 02:43:51 PM 34.9144 -78.1450 218° Southwest 372 428 36,000  Level Washington Center
Thu 02:45:28 PM 34.7822 -78.2722 218° Southwest 375 432 36,000  Level Jacksonville Center
Thu 02:46:28 PM 34.7042 -78.3572 222° Southwest 380 437 36,000  Level Jacksonville Center
Thu 02:47:28 PM 34.6133 -78.4428 218° Southwest 380 437 36,000  Level Jacksonville Center
Thu 02:48:28 PM 34.5361 -78.5072 215° Southwest 380 437 36,000  Level Jacksonville Center
Thu 02:49:28 PM 34.4578 -78.5892 221° Southwest 380 437 36,000  Level Jacksonville Center
Thu 02:50:28 PM 34.3728 -78.6689 218° Southwest 380 437 36,000  Level Jacksonville Center
Thu 02:51:28 PM 34.2897 -78.7458 217° Southwest 385 443 36,000  Level Jacksonville Center
Thu 02:52:28 PM 34.2069 -78.8250 218° Southwest 385 443 36,000  Level Jacksonville Center
Thu 02:53:28 PM 34.1347 -78.9161 226° Southwest 385 443 36,000  Level Jacksonville Center
Thu 02:54:28 PM 34.0708 -79.0094 230° Southwest 374 430 36,000  Level Jacksonville Center
Thu 02:55:28 PM 34.0050 -79.1050 230° Southwest 374 430 36,000  Level Jacksonville Center
Thu 02:56:28 PM 33.9389 -79.2031 231° Southwest 374 430 36,000  Level Jacksonville Center
Thu 02:57:28 PM 33.8708 -79.2983 229° Southwest 374 430 36,000  Level Jacksonville Center
Thu 02:58:28 PM 33.8067 -79.3933 231° Southwest 374 430 36,000  Level Jacksonville Center
Thu 02:59:28 PM 33.7406 -79.4933 232° Southwest 367 422 36,000  Level Jacksonville Center
Thu 03:00:28 PM 33.6742 -79.5908 231° Southwest 367 422 36,000  Level Jacksonville Center
Thu 03:01:28 PM 33.6119 -79.6853 232° Southwest 367 422 36,000  Level Jacksonville Center
Thu 03:02:28 PM 33.5456 -79.7825 231° Southwest 367 422 36,000  Level Jacksonville Center
Thu 03:03:29 PM 33.4811 -79.8794 231° Southwest 372 428 36,000  Level Jacksonville Center
Thu 03:04:28 PM 33.4167 -79.9736 231° Southwest 372 428 36,000  Level Jacksonville Center
Thu 03:05:28 PM 33.3581 -80.0625 232° Southwest 378 435 36,000  Level Jacksonville Center
Thu 03:06:28 PM 33.2933 -80.1567 231° Southwest 378 435 36,000  Level Jacksonville Center
Thu 03:07:28 PM 33.2286 -80.2556 232° Southwest 378 435 36,000  Level Jacksonville Center
Thu 03:08:28 PM 33.1303 -80.3453 217° Southwest 405 466 36,000  Level Jacksonville Center
Thu 03:09:28 PM 33.0247 -80.3878 199° South 411 473 36,000  Level Jacksonville Center
Thu 03:10:28 PM 32.9192 -80.4253 197° South 433 498 36,000  Level Jacksonville Center
Thu 03:11:28 PM 32.8069 -80.4606 195° South 433 498 36,000  Level Jacksonville Center
Thu 03:12:28 PM 32.6969 -80.4956 195° South 428 493 36,000  Level Jacksonville Center
Thu 03:13:28 PM 32.5850 -80.5331 196° South 423 487 36,000  Level Jacksonville Center
Thu 03:14:28 PM 32.4583 -80.5733 195° South 423 487 36,000  Level Jacksonville Center
Thu 03:15:28 PM 32.3464 -80.6106 196° South 413 475 36,000  Level Jacksonville Center
Thu 03:16:28 PM 32.2344 -80.6478 196° South 418 481 36,000  Level Jacksonville Center
Thu 03:17:28 PM 32.1242 -80.6822 195° South 413 475 36,000  Level Jacksonville Center
Thu 03:18:28 PM 32.0225 -80.7142 195° South 413 475 36,000  Level Jacksonville Center
Thu 03:19:28 PM 31.8981 -80.7539 195° South 418 481 36,000  Level Jacksonville Center
Thu 03:20:28 PM 31.7878 -80.7906 196° South 418 481 36,000  Level Jacksonville Center
Thu 03:21:28 PM 31.6842 -80.8247 196° South 418 481 36,000  Level Jacksonville Center
Thu 03:22:28 PM 31.5594 -80.8617 194° South 418 481 36,000  Level Jacksonville Center
Thu 03:23:28 PM 31.4556 -80.8931 194° South 423 487 36,000  Level Jacksonville Center
Thu 03:24:28 PM 31.3414 -80.9319 196° South 423 487 36,000  Level Jacksonville Center
Thu 03:25:28 PM 31.2250 -80.9708 196° South 428 493 36,000  Level Jacksonville Center
Thu 03:26:28 PM 31.1106 -81.0072 195° South 433 498 36,000 -100 Level Jacksonville Center
Thu 03:27:28 PM 30.9942 -81.0436 195° South 433 498 35,800 -600 Descending Jacksonville Center
Thu 03:28:28 PM 30.8778 -81.0797 195° South 433 498 34,800 -950 Descending Jacksonville Center
Thu 03:29:28 PM 30.7636 -81.1156 195° South 433 498 33,900 -400 Descending Jacksonville Center
Thu 03:30:28 PM 30.6492 -81.1492 194° South 433 498 34,000 50 Climbing Jacksonville Center
Thu 03:31:28 PM 30.5261 -81.1514 181° South 433 498 34,000  Level Jacksonville Center
Thu 03:32:28 PM 30.4028 -81.1464 178° South 438 504 34,000 -100 Level Jacksonville Center
Thu 03:33:28 PM 30.2794 -81.1439 179° South 438 504 33,800 -1,200 Descending Jacksonville Center
Thu 03:34:28 PM 30.1583 -81.1414 179° South 438 504 31,600 -2,100 Descending Jacksonville Center
Thu 03:35:28 PM 30.0394 -81.1364 178° South 438 504 29,600 -2,000 Descending Jacksonville Center
Thu 03:36:28 PM 29.9267 -81.1358 180° South 425 489 27,600 -1,950 Descending Jacksonville Center
Thu 03:37:28 PM 29.8139 -81.1308 178° South 412 474 25,700 -1,850 Descending Jacksonville Center
Thu 03:38:28 PM 29.7072 -81.1278 179° South 400 460 23,900 -1,800 Descending Jacksonville Center
Thu 03:39:28 PM 29.6028 -81.1250 179° South 389 448 22,100 -1,750 Descending Jacksonville Center
Thu 03:40:28 PM 29.5006 -81.1244 180° South 377 434 20,400 -1,650 Descending Jacksonville Center
Thu 03:41:28 PM 29.4067 -81.1167 176° South 365 420 18,800 -1,600 Descending Jacksonville Center
Thu 03:42:28 PM 29.3125 -81.1136 178° South 352 405 17,200 -1,700 Descending Jacksonville Center
Thu 03:43:28 PM 29.2206 -81.1081 177° South 341 392 15,400 -1,700 Descending Jacksonville Center
Thu 03:44:28 PM 29.1267 -81.1003 176° South 341 392 13,800 -1,518 Descending Jacksonville Center
Thu 03:46:14 PM 28.9667 -81.0833 175° South 307 353 11,200 -1,554 Descending Orlando TRACON
Thu 03:47:14 PM 28.8833 -81.0667 170° South 306 352 9,500 -1,750 Descending Orlando TRACON
Thu 03:48:14 PM 28.8000 -81.0500 170° South 298 343 7,700 -1,736 Descending Orlando TRACON
Thu 03:49:15 PM 28.7500 -81.1333 236° Southwest 264 304 6,000 -1,190 Descending Orlando TRACON
Thu 03:50:15 PM 28.7167 -81.2000 240° Southwest 230 265 5,300 -900 Descending Orlando TRACON
Thu 03:51:15 PM 28.6667 -81.2333 210° Southwest 231 266 4,200 -850 Descending Orlando TRACON
Thu 03:52:15 PM 28.6167 -81.2667 210° Southwest 215 247 3,600 -905 Descending Orlando TRACON
Thu 03:53:21 PM 28.5500 -81.2833 192° South 214 246 2,300 -1,100 Descending Orlando TRACON
Thu 03:54:15 PM 28.5000 -81.2833 180° South 170 196 1,400 -850 Descending Orlando TRACON
Thu 03:55:21 PM 28.4667 -81.3000 204° Southwest 143 165 600 -727 Descending Orlando TRACON
Thu 03:57:00 PM 28.4294 -81.3090 180° South  Level Estimated

Login

Don't have an account? Register now (free) for customized features, flight alerts, and more!